createdAt,value
2019-05-12T00:00:33.913Z,0.00
2019-05-12T00:01:33.912Z,0.00
2019-05-12T00:02:33.886Z,0.00
2019-05-12T00:03:33.872Z,0.00
2019-05-12T00:04:33.861Z,0.00
2019-05-12T00:05:33.919Z,0.00
2019-05-12T00:06:33.841Z,0.00
2019-05-12T00:07:33.843Z,0.00
2019-05-12T00:08:33.815Z,0.00
2019-05-12T00:09:33.803Z,0.00
2019-05-12T00:10:33.793Z,0.00
2019-05-12T00:11:33.855Z,0.00
2019-05-12T00:12:33.771Z,0.00
2019-05-12T00:13:33.760Z,0.00
2019-05-12T00:14:33.765Z,0.00
2019-05-12T00:15:33.734Z,0.00
2019-05-12T00:16:33.720Z,0.00
2019-05-12T00:17:33.787Z,0.00
2019-05-12T00:18:33.709Z,0.00
2019-05-12T00:19:33.689Z,0.00
2019-05-12T00:20:33.690Z,0.00
2019-05-12T00:21:36.754Z,0.00
2019-05-12T00:22:33.655Z,0.00
2019-05-12T00:23:33.714Z,0.00
2019-05-12T00:24:33.629Z,0.00
2019-05-12T00:25:33.628Z,0.00
2019-05-12T00:26:33.610Z,0.00
2019-05-12T00:27:33.594Z,0.00
2019-05-12T00:28:33.590Z,0.00
2019-05-12T00:29:33.640Z,0.00
2019-05-12T00:30:33.559Z,0.00
2019-05-12T00:31:33.546Z,0.00
2019-05-12T00:32:33.558Z,0.00
2019-05-12T00:33:33.527Z,0.00
2019-05-12T00:34:33.517Z,0.00
2019-05-12T00:35:33.568Z,0.00
2019-05-12T00:36:33.487Z,0.00
2019-05-12T00:37:33.481Z,0.00
2019-05-12T00:38:33.495Z,0.00
2019-05-12T00:39:33.456Z,0.00
2019-05-12T00:40:33.444Z,0.00
2019-05-12T00:41:33.495Z,0.00
2019-05-12T00:42:33.415Z,0.00
2019-05-12T00:43:33.410Z,0.00
2019-05-12T00:44:33.428Z,0.00
2019-05-12T00:45:33.385Z,0.00
2019-05-12T00:46:33.372Z,0.00
2019-05-12T00:47:33.433Z,0.00
2019-05-12T00:48:33.348Z,0.00
2019-05-12T00:49:33.336Z,0.00
2019-05-12T00:50:33.341Z,0.00
2019-05-12T00:51:33.316Z,0.00
2019-05-12T00:52:33.305Z,0.00
2019-05-12T00:53:39.866Z,0.00
2019-05-12T00:54:34.275Z,0.00
2019-05-12T00:55:33.264Z,0.00
2019-05-12T00:56:33.262Z,0.00
2019-05-12T00:57:33.244Z,0.00
2019-05-12T00:58:33.237Z,0.00
2019-05-12T00:59:33.292Z,0.00
2019-05-12T01:00:33.205Z,0.00
2019-05-12T01:01:33.197Z,0.00
2019-05-12T01:02:33.187Z,0.00
2019-05-12T01:03:33.205Z,0.00
2019-05-12T01:04:33.159Z,0.00
2019-05-12T01:05:33.213Z,0.00
2019-05-12T01:06:33.136Z,0.00
2019-05-12T01:07:33.127Z,0.00
2019-05-12T01:08:33.120Z,0.00
2019-05-12T01:09:33.114Z,0.00
2019-05-12T01:10:33.089Z,0.00
2019-05-12T01:11:33.148Z,0.00
2019-05-12T01:12:33.066Z,0.00
2019-05-12T01:13:33.053Z,0.00
2019-05-12T01:14:33.045Z,0.00
2019-05-12T01:15:33.055Z,0.00
2019-05-12T01:16:33.018Z,0.00
2019-05-12T01:17:33.076Z,0.00
2019-05-12T01:18:32.997Z,0.00
2019-05-12T01:19:32.985Z,0.00
2019-05-12T01:20:32.973Z,0.00
2019-05-12T01:21:32.979Z,0.00
2019-05-12T01:22:32.949Z,0.00
2019-05-12T01:23:33.010Z,0.00
2019-05-12T01:24:32.925Z,0.00
2019-05-12T01:25:32.919Z,0.00
2019-05-12T01:26:32.904Z,0.00
2019-05-12T01:27:32.898Z,0.00
2019-05-12T01:28:32.894Z,0.00
2019-05-12T01:29:32.937Z,0.00
2019-05-12T01:30:32.859Z,0.00
2019-05-12T01:31:32.849Z,0.00
2019-05-12T01:32:32.858Z,0.00
2019-05-12T01:33:32.820Z,0.00
2019-05-12T01:34:32.810Z,0.00
2019-05-12T01:35:32.886Z,0.00
2019-05-12T01:36:32.787Z,0.00
2019-05-12T01:37:32.775Z,0.00
2019-05-12T01:38:32.762Z,0.00
2019-05-12T01:39:32.755Z,0.00
2019-05-12T01:40:32.741Z,0.00
2019-05-12T01:41:32.810Z,0.00
2019-05-12T01:42:32.721Z,0.00
2019-05-12T01:43:32.702Z,0.00
2019-05-12T01:44:32.690Z,0.00
2019-05-12T01:45:32.682Z,0.00
2019-05-12T01:46:32.668Z,0.00
2019-05-12T01:47:32.746Z,0.00
2019-05-12T01:48:32.649Z,0.00
2019-05-12T01:49:32.632Z,0.00
2019-05-12T01:50:32.630Z,0.00
2019-05-12T01:51:32.612Z,0.00
2019-05-12T01:52:32.596Z,0.00
2019-05-12T01:53:32.674Z,0.00
2019-05-12T01:54:32.575Z,0.00
2019-05-12T01:55:32.564Z,0.00
2019-05-12T01:56:32.552Z,0.00
2019-05-12T01:57:32.539Z,0.00
2019-05-12T01:58:32.531Z,0.00
2019-05-12T01:59:32.597Z,0.00
2019-05-12T02:00:32.505Z,0.00
2019-05-12T02:01:32.494Z,0.00
2019-05-12T02:02:32.483Z,0.00
2019-05-12T02:03:32.471Z,0.00
2019-05-12T02:04:32.483Z,0.00
2019-05-12T02:05:32.524Z,0.00
2019-05-12T02:06:32.434Z,0.00
2019-05-12T02:07:32.430Z,0.00
2019-05-12T02:08:32.412Z,0.00
2019-05-12T02:09:32.400Z,0.00
2019-05-12T02:10:32.410Z,0.00
2019-05-12T02:11:32.444Z,0.00
2019-05-12T02:12:32.363Z,0.00
2019-05-12T02:13:32.352Z,0.00
2019-05-12T02:14:32.341Z,0.00
2019-05-12T02:15:32.364Z,0.00
2019-05-12T02:16:32.319Z,0.00
2019-05-12T02:17:32.373Z,0.00
2019-05-12T02:18:32.294Z,0.00
2019-05-12T02:19:32.283Z,0.00
2019-05-12T02:20:32.272Z,0.00
2019-05-12T02:21:32.274Z,0.00
2019-05-12T02:22:32.245Z,0.00
2019-05-12T02:23:32.304Z,0.00
2019-05-12T02:24:32.224Z,0.00
2019-05-12T02:25:32.213Z,0.00
2019-05-12T02:26:32.198Z,0.00
2019-05-12T02:27:32.208Z,0.00
2019-05-12T02:28:32.176Z,0.00
2019-05-12T02:29:32.234Z,0.00
2019-05-12T02:30:32.160Z,0.00
2019-05-12T02:31:32.150Z,0.00
2019-05-12T02:32:43.342Z,0.00
2019-05-12T02:33:35.619Z,0.00
2019-05-12T02:34:34.727Z,0.00
2019-05-12T02:35:35.227Z,0.00
2019-05-12T02:36:34.140Z,0.00
2019-05-12T02:37:35.446Z,0.00
2019-05-12T02:38:33.413Z,0.00
2019-05-12T02:39:35.035Z,0.00
2019-05-12T02:40:34.775Z,0.00
2019-05-12T02:41:34.515Z,0.00
2019-05-12T02:42:34.915Z,0.00
2019-05-12T02:43:34.698Z,0.00
2019-05-12T02:44:34.557Z,0.00
2019-05-12T02:45:35.107Z,0.00
2019-05-12T02:46:34.878Z,0.00
2019-05-12T02:47:34.663Z,0.00
2019-05-12T02:48:31.948Z,0.00
2019-05-12T02:49:34.882Z,0.00
2019-05-12T02:50:35.115Z,0.00
2019-05-12T02:51:34.960Z,0.00
2019-05-12T02:52:34.510Z,0.00
2019-05-12T02:53:34.931Z,0.00
2019-05-12T02:54:50.950Z,0.00
2019-05-12T02:55:34.855Z,0.00
2019-05-12T02:56:35.174Z,0.00
2019-05-12T02:57:34.318Z,0.00
2019-05-12T02:58:34.580Z,0.00
2019-05-12T02:59:34.691Z,0.00
2019-05-12T03:00:34.929Z,0.00
2019-05-12T03:01:34.532Z,0.00
2019-05-12T03:02:34.530Z,0.00
2019-05-12T03:03:35.027Z,0.00
2019-05-12T03:04:34.846Z,0.00
2019-05-12T03:05:34.870Z,0.00
2019-05-12T03:06:31.740Z,0.00
2019-05-12T03:07:34.444Z,0.00
2019-05-12T03:08:34.554Z,0.00
2019-05-12T03:09:34.875Z,0.00
2019-05-12T03:10:31.698Z,0.00
2019-05-12T03:11:31.748Z,0.00
2019-05-12T03:12:34.464Z,0.00
2019-05-12T03:13:34.367Z,0.00
2019-05-12T03:14:39.189Z,0.00
2019-05-12T03:15:36.171Z,0.00
2019-05-12T03:16:34.634Z,0.00
2019-05-12T03:17:35.219Z,0.00
2019-05-12T03:18:34.553Z,5.62
2019-05-12T03:19:34.433Z,5.62
2019-05-12T03:20:34.675Z,5.62
2019-05-12T03:21:35.017Z,5.62
2019-05-12T03:22:31.568Z,5.62
2019-05-12T03:23:31.640Z,5.62
2019-05-12T03:24:34.026Z,5.62
2019-05-12T03:25:35.075Z,11.25
2019-05-12T03:26:34.525Z,11.25
2019-05-12T03:27:31.507Z,11.25
2019-05-12T03:28:31.499Z,11.25
2019-05-12T03:29:34.256Z,11.25
2019-05-12T03:30:37.056Z,16.88
2019-05-12T03:31:38.732Z,16.88
2019-05-12T03:32:37.293Z,16.88
2019-05-12T03:33:36.146Z,16.88
2019-05-12T03:34:37.656Z,22.50
2019-05-12T03:35:39.751Z,22.50
2019-05-12T03:36:39.225Z,22.50
2019-05-12T03:37:35.177Z,28.12
2019-05-12T03:38:31.382Z,28.12
2019-05-12T03:39:34.252Z,28.12
2019-05-12T03:40:31.440Z,33.75
2019-05-12T03:41:31.355Z,33.75
2019-05-12T03:42:31.340Z,39.38
2019-05-12T03:43:31.342Z,39.38
2019-05-12T03:44:31.312Z,45.00
2019-05-12T03:45:31.301Z,45.00
2019-05-12T03:46:31.360Z,50.62
2019-05-12T03:47:31.281Z,50.62
2019-05-12T03:48:34.705Z,56.25
2019-05-12T03:49:31.258Z,61.88
2019-05-12T03:50:34.890Z,61.88
2019-05-12T03:51:31.236Z,67.50
2019-05-12T03:52:34.706Z,67.50
2019-05-12T03:53:34.907Z,73.12
2019-05-12T03:54:31.200Z,78.75
2019-05-12T03:55:36.371Z,84.38
2019-05-12T03:56:34.490Z,84.38
2019-05-12T03:57:34.265Z,90.00
2019-05-12T03:58:34.408Z,95.62
2019-05-12T03:59:34.586Z,101.25
2019-05-12T04:00:31.138Z,101.25
2019-05-12T04:01:31.118Z,106.88
2019-05-12T04:02:33.876Z,112.50
2019-05-12T04:03:34.337Z,118.12
2019-05-12T04:04:34.097Z,118.12
2019-05-12T04:05:34.543Z,123.75
2019-05-12T04:06:34.394Z,129.38
2019-05-12T04:07:34.247Z,129.38
2019-05-12T04:08:31.038Z,135.00
2019-05-12T04:09:31.027Z,140.62
2019-05-12T04:10:31.086Z,140.62
2019-05-12T04:11:31.003Z,146.25
2019-05-12T04:12:34.309Z,146.25
2019-05-12T04:13:33.951Z,151.88
2019-05-12T04:14:30.967Z,151.88
2019-05-12T04:15:30.961Z,157.50
2019-05-12T04:16:31.020Z,157.50
2019-05-12T04:17:30.951Z,163.12
2019-05-12T04:18:30.926Z,168.75
2019-05-12T04:19:34.199Z,163.12
2019-05-12T04:20:30.900Z,168.75
2019-05-12T04:21:30.891Z,174.38
2019-05-12T04:22:30.940Z,174.38
2019-05-12T04:23:30.871Z,180.00
2019-05-12T04:24:30.864Z,185.62
2019-05-12T04:25:46.259Z,185.62
2019-05-12T04:26:35.789Z,185.62
2019-05-12T04:27:30.823Z,185.62
2019-05-12T04:28:30.868Z,191.25
2019-05-12T04:29:30.798Z,191.25
2019-05-12T04:30:30.784Z,191.25
2019-05-12T04:31:30.774Z,191.25
2019-05-12T04:32:30.772Z,191.25
2019-05-12T04:33:30.750Z,196.88
2019-05-12T04:34:34.111Z,202.50
2019-05-12T04:35:30.732Z,202.50
2019-05-12T04:36:30.717Z,208.12
2019-05-12T04:37:30.703Z,213.75
2019-05-12T04:38:30.696Z,213.75
2019-05-12T04:39:30.681Z,213.75
2019-05-12T04:40:30.743Z,219.38
2019-05-12T04:41:30.663Z,213.75
2019-05-12T04:42:30.649Z,213.75
2019-05-12T04:43:30.638Z,213.75
2019-05-12T04:44:30.634Z,213.75
2019-05-12T04:45:30.618Z,213.75
2019-05-12T04:46:30.681Z,208.12
2019-05-12T04:47:30.587Z,208.12
2019-05-12T04:48:30.577Z,213.75
2019-05-12T04:49:30.568Z,219.38
2019-05-12T04:50:30.553Z,219.38
2019-05-12T04:51:30.543Z,225.00
2019-05-12T04:52:30.611Z,230.62
2019-05-12T04:53:30.524Z,230.62
2019-05-12T04:54:30.509Z,230.62
2019-05-12T04:55:30.498Z,230.62
2019-05-12T04:56:30.484Z,230.62
2019-05-12T04:57:30.474Z,230.62
2019-05-12T04:58:30.536Z,236.25
2019-05-12T04:59:30.460Z,236.25
2019-05-12T05:00:30.442Z,241.88
2019-05-12T05:01:30.427Z,247.50
2019-05-12T05:02:30.416Z,247.50
2019-05-12T05:03:30.411Z,253.12
2019-05-12T05:04:30.454Z,258.75
2019-05-12T05:05:30.393Z,253.12
2019-05-12T05:06:30.374Z,258.75
2019-05-12T05:07:30.360Z,270.00
2019-05-12T05:08:30.348Z,275.62
2019-05-12T05:09:30.340Z,275.62
2019-05-12T05:10:30.397Z,264.38
2019-05-12T05:11:30.330Z,270.00
2019-05-12T05:12:30.303Z,270.00
2019-05-12T05:13:30.290Z,275.62
2019-05-12T05:14:30.285Z,275.62
2019-05-12T05:15:30.275Z,275.62
2019-05-12T05:16:30.320Z,286.88
2019-05-12T05:17:30.263Z,281.25
2019-05-12T05:18:30.237Z,281.25
2019-05-12T05:19:30.226Z,292.50
2019-05-12T05:20:30.212Z,315.00
2019-05-12T05:21:30.201Z,337.50
2019-05-12T05:22:30.262Z,337.50
2019-05-12T05:23:30.185Z,337.50
2019-05-12T05:24:30.167Z,348.75
2019-05-12T05:25:30.157Z,348.75
2019-05-12T05:26:30.145Z,360.00
2019-05-12T05:27:30.134Z,354.38
2019-05-12T05:28:30.189Z,354.38
2019-05-12T05:29:30.124Z,365.62
2019-05-12T05:30:30.114Z,376.88
2019-05-12T05:31:30.093Z,388.12
2019-05-12T05:32:30.084Z,405.00
2019-05-12T05:33:30.072Z,421.88
2019-05-12T05:34:30.120Z,455.62
2019-05-12T05:35:35.093Z,545.62
2019-05-12T05:36:31.032Z,669.38
2019-05-12T05:37:30.814Z,765.00
2019-05-12T05:38:31.007Z,826.88
2019-05-12T05:39:30.007Z,826.88
2019-05-12T05:40:30.388Z,832.50
2019-05-12T05:41:29.998Z,928.12
2019-05-12T05:42:32.785Z,973.12
2019-05-12T05:43:33.212Z,1012.50
2019-05-12T05:44:36.241Z,1051.88
2019-05-12T05:45:31.013Z,1113.75
2019-05-12T05:46:29.921Z,1158.75
2019-05-12T05:47:29.907Z,1175.62
2019-05-12T05:48:32.147Z,1243.12
2019-05-12T05:49:30.889Z,1321.88
2019-05-12T05:50:29.870Z,601.88
2019-05-12T05:51:29.930Z,506.25
2019-05-12T05:52:33.158Z,511.88
2019-05-12T05:53:30.839Z,1029.38
2019-05-12T05:54:31.808Z,590.62
2019-05-12T05:55:30.820Z,1181.25
2019-05-12T05:56:39.790Z,1198.12
2019-05-12T05:57:30.868Z,1108.12
2019-05-12T05:58:29.782Z,939.38
2019-05-12T05:59:31.823Z,1276.88
2019-05-12T06:00:30.761Z,1136.25
2019-05-12T06:01:29.779Z,675.00
2019-05-12T06:02:32.068Z,826.88
2019-05-12T06:03:30.804Z,753.75
2019-05-12T06:04:29.711Z,945.00
2019-05-12T06:05:31.055Z,956.25
2019-05-12T06:06:29.688Z,1209.38
2019-05-12T06:07:35.135Z,1096.88
2019-05-12T06:08:30.683Z,1170.00
2019-05-12T06:09:29.722Z,720.00
2019-05-12T06:10:36.172Z,1063.12
2019-05-12T06:11:30.633Z,888.75
2019-05-12T06:12:29.621Z,3718.12
2019-05-12T06:13:31.853Z,765.00
2019-05-12T06:14:29.605Z,804.38
2019-05-12T06:15:34.112Z,798.75
2019-05-12T06:16:30.588Z,1524.38
2019-05-12T06:17:29.571Z,1535.62
2019-05-12T06:18:29.549Z,1440.00
2019-05-12T06:19:29.541Z,1456.88
2019-05-12T06:20:29.527Z,990.00
2019-05-12T06:21:34.750Z,1063.12
2019-05-12T06:22:30.507Z,798.75
2019-05-12T06:23:34.830Z,1271.25
2019-05-12T06:24:30.499Z,1243.12
2019-05-12T06:25:44.549Z,1226.25
2019-05-12T06:26:34.890Z,1186.88
2019-05-12T06:27:32.772Z,1080.00
2019-05-12T06:28:31.270Z,1175.62
2019-05-12T06:29:30.429Z,1231.88
2019-05-12T06:30:29.413Z,1153.12
2019-05-12T06:31:29.962Z,990.00
2019-05-12T06:32:29.459Z,1141.88
2019-05-12T06:33:31.622Z,1288.12
2019-05-12T06:34:29.389Z,1164.38
2019-05-12T06:35:30.938Z,1338.75
2019-05-12T06:36:30.354Z,1395.00
2019-05-12T06:37:29.337Z,1603.12
2019-05-12T06:38:31.106Z,1935.00
2019-05-12T06:39:30.307Z,686.25
2019-05-12T06:40:30.831Z,900.00
2019-05-12T06:41:30.295Z,2396.25
2019-05-12T06:42:29.275Z,2548.12
2019-05-12T06:43:34.048Z,2660.62
2019-05-12T06:44:30.321Z,2587.50
2019-05-12T06:45:36.499Z,2441.25
2019-05-12T06:46:30.234Z,2503.12
2019-05-12T06:47:29.220Z,2463.75
2019-05-12T06:48:30.273Z,714.38
2019-05-12T06:49:29.206Z,939.38
2019-05-12T06:50:37.323Z,2823.75
2019-05-12T06:51:30.172Z,2171.25
2019-05-12T06:52:29.162Z,1276.88
2019-05-12T06:53:31.055Z,894.38
2019-05-12T06:54:29.141Z,939.38
2019-05-12T06:55:34.326Z,950.62
2019-05-12T06:56:30.189Z,894.38
2019-05-12T06:57:29.152Z,821.25
2019-05-12T06:58:32.140Z,753.75
2019-05-12T06:59:30.080Z,624.38
2019-05-12T07:00:30.613Z,697.50
2019-05-12T07:01:29.074Z,691.88
2019-05-12T07:02:30.307Z,652.50
2019-05-12T07:03:31.518Z,658.12
2019-05-12T07:04:29.023Z,669.38
2019-05-12T07:05:33.759Z,680.62
2019-05-12T07:06:30.004Z,686.25
2019-05-12T07:07:33.471Z,675.00
2019-05-12T07:08:32.823Z,725.62
2019-05-12T07:09:32.626Z,731.25
2019-05-12T07:10:43.365Z,742.50
2019-05-12T07:11:41.679Z,793.12
2019-05-12T07:12:33.622Z,826.88
2019-05-12T07:13:29.929Z,720.00
2019-05-12T07:14:28.976Z,810.00
2019-05-12T07:15:29.362Z,798.75
2019-05-12T07:16:30.447Z,798.75
2019-05-12T07:17:28.870Z,770.62
2019-05-12T07:18:32.840Z,652.50
2019-05-12T07:19:29.952Z,748.12
2019-05-12T07:20:29.210Z,725.62
2019-05-12T07:21:29.825Z,776.25
2019-05-12T07:22:31.249Z,658.12
2019-05-12T07:23:30.274Z,765.00
2019-05-12T07:24:28.795Z,742.50
2019-05-12T07:25:31.320Z,731.25
2019-05-12T07:26:28.773Z,736.88
2019-05-12T07:27:36.708Z,736.88
2019-05-12T07:28:30.320Z,731.25
2019-05-12T07:29:29.733Z,736.88
2019-05-12T07:30:31.722Z,748.12
2019-05-12T07:31:29.787Z,759.38
2019-05-12T07:32:28.704Z,787.50
2019-05-12T07:33:32.798Z,804.38
2019-05-12T07:34:29.678Z,787.50
2019-05-12T07:35:28.666Z,793.12
2019-05-12T07:36:28.654Z,759.38
2019-05-12T07:37:30.082Z,770.62
2019-05-12T07:38:28.664Z,765.00
2019-05-12T07:39:28.618Z,793.12
2019-05-12T07:40:30.103Z,815.62
2019-05-12T07:41:28.596Z,866.25
2019-05-12T07:42:31.131Z,916.88
2019-05-12T07:43:29.636Z,905.62
2019-05-12T07:44:34.355Z,916.88
2019-05-12T07:45:29.550Z,984.38
2019-05-12T07:46:28.548Z,883.12
2019-05-12T07:47:29.410Z,978.75
2019-05-12T07:48:28.516Z,928.12
2019-05-12T07:49:34.520Z,860.62
2019-05-12T07:50:29.496Z,641.25
2019-05-12T07:51:30.257Z,928.12
2019-05-12T07:52:29.470Z,905.62
2019-05-12T07:53:28.457Z,888.75
2019-05-12T07:54:29.452Z,877.50
2019-05-12T07:55:29.502Z,945.00
2019-05-12T07:56:32.609Z,939.38
2019-05-12T07:57:29.411Z,888.75
2019-05-12T07:58:28.421Z,855.00
2019-05-12T07:59:38.799Z,871.88
2019-05-12T08:00:29.378Z,759.38
2019-05-12T08:01:28.429Z,720.00
2019-05-12T08:02:31.733Z,810.00
2019-05-12T08:03:29.364Z,967.50
2019-05-12T08:04:31.648Z,562.50
2019-05-12T08:05:29.319Z,793.12
2019-05-12T08:06:32.595Z,596.25
2019-05-12T08:07:30.030Z,933.75
2019-05-12T08:08:28.286Z,888.75
2019-05-12T08:09:32.427Z,765.00
2019-05-12T08:10:29.261Z,871.88
2019-05-12T08:11:28.695Z,894.38
2019-05-12T08:12:29.248Z,877.50
2019-05-12T08:13:31.201Z,900.00
2019-05-12T08:14:29.560Z,900.00
2019-05-12T08:15:28.205Z,894.38
2019-05-12T08:16:30.212Z,894.38
2019-05-12T08:17:28.182Z,900.00
2019-05-12T08:18:30.541Z,894.38
2019-05-12T08:19:29.221Z,905.62
2019-05-12T08:20:28.154Z,905.62
2019-05-12T08:21:28.136Z,905.62
2019-05-12T08:22:29.441Z,911.25
2019-05-12T08:23:28.115Z,916.88
2019-05-12T08:24:28.110Z,916.88
2019-05-12T08:25:28.910Z,928.12
2019-05-12T08:26:28.084Z,928.12
2019-05-12T08:27:28.067Z,939.38
2019-05-12T08:28:36.083Z,933.75
2019-05-12T08:29:29.045Z,950.62
2019-05-12T08:30:28.040Z,967.50
2019-05-12T08:31:33.070Z,984.38
2019-05-12T08:32:29.009Z,961.88
2019-05-12T08:33:28.001Z,956.25
2019-05-12T08:34:27.996Z,961.88
2019-05-12T08:35:34.798Z,832.50
2019-05-12T08:36:29.031Z,967.50
2019-05-12T08:37:27.972Z,973.12
2019-05-12T08:38:27.945Z,973.12
2019-05-12T08:39:27.932Z,961.88
2019-05-12T08:40:27.928Z,956.25
2019-05-12T08:41:27.906Z,961.88
2019-05-12T08:42:27.996Z,973.12
2019-05-12T08:43:27.891Z,967.50
2019-05-12T08:44:33.747Z,939.38
2019-05-12T08:45:34.117Z,922.50
2019-05-12T08:46:28.851Z,933.75
2019-05-12T08:47:28.972Z,945.00
2019-05-12T08:48:28.897Z,967.50
2019-05-12T08:49:35.834Z,1012.50
2019-05-12T08:50:31.520Z,1029.38
2019-05-12T08:51:27.791Z,1068.75
2019-05-12T08:52:30.473Z,1108.12
2019-05-12T08:53:28.774Z,1102.50
2019-05-12T08:54:27.835Z,1119.38
2019-05-12T08:55:31.229Z,1153.12
2019-05-12T08:56:27.739Z,1181.25
2019-05-12T08:57:34.891Z,1355.62
2019-05-12T08:58:33.563Z,1518.75
2019-05-12T08:59:28.772Z,1451.25
2019-05-12T09:00:27.697Z,911.25
2019-05-12T09:01:30.760Z,1063.12
2019-05-12T09:02:27.672Z,1220.62
2019-05-12T09:03:30.552Z,1153.12
2019-05-12T09:04:27.643Z,1108.12
2019-05-12T09:05:33.693Z,1068.75
2019-05-12T09:06:28.621Z,1040.62
2019-05-12T09:07:30.428Z,1040.62
2019-05-12T09:08:28.617Z,1057.50
2019-05-12T09:09:27.586Z,1108.12
2019-05-12T09:10:27.577Z,1237.50
2019-05-12T09:11:27.640Z,2424.38
2019-05-12T09:12:27.552Z,4393.12
2019-05-12T09:13:27.541Z,4905.00
2019-05-12T09:14:27.532Z,5034.38
2019-05-12T09:15:27.520Z,4888.12
2019-05-12T09:16:27.507Z,4843.12
2019-05-12T09:17:27.569Z,4882.50
2019-05-12T09:18:33.497Z,4989.38
2019-05-12T09:19:28.474Z,5068.12
2019-05-12T09:20:27.461Z,5068.12
2019-05-12T09:21:31.804Z,5011.88
2019-05-12T09:22:28.497Z,5085.00
2019-05-12T09:23:32.812Z,5085.00
2019-05-12T09:24:28.427Z,5034.38
2019-05-12T09:25:27.412Z,5023.12
2019-05-12T09:26:28.655Z,5163.75
2019-05-12T09:27:27.388Z,5158.12
2019-05-12T09:28:27.435Z,4944.38
2019-05-12T09:29:27.367Z,4961.25
2019-05-12T09:30:27.369Z,5191.88
2019-05-12T09:31:29.428Z,5096.25
2019-05-12T09:32:27.329Z,5068.12
2019-05-12T09:33:31.719Z,5208.75
2019-05-12T09:34:29.342Z,5276.25
2019-05-12T09:35:28.743Z,5298.75
2019-05-12T09:36:28.286Z,5355.00
2019-05-12T09:37:30.862Z,5355.00
2019-05-12T09:38:28.257Z,5473.12
2019-05-12T09:39:27.247Z,5484.38
2019-05-12T09:40:27.300Z,5484.38
2019-05-12T09:41:27.225Z,5484.38
2019-05-12T09:42:29.987Z,5473.12
2019-05-12T09:43:27.199Z,5506.88
2019-05-12T09:44:30.396Z,5557.50
2019-05-12T09:45:27.196Z,5574.38
2019-05-12T09:46:28.313Z,5602.50
2019-05-12T09:47:28.348Z,5478.75
2019-05-12T09:48:27.143Z,5343.75
2019-05-12T09:49:31.326Z,5681.25
2019-05-12T09:50:28.122Z,5681.25
2019-05-12T09:51:27.130Z,5681.25
2019-05-12T09:52:27.318Z,5866.88
2019-05-12T09:53:27.091Z,5731.88
2019-05-12T09:54:35.387Z,5703.75
2019-05-12T09:55:28.067Z,5743.12
2019-05-12T09:56:27.056Z,5467.50
2019-05-12T09:57:32.513Z,5529.38
2019-05-12T09:58:28.115Z,5698.12
2019-05-12T09:59:27.021Z,5720.62
2019-05-12T10:00:30.321Z,5861.25
2019-05-12T10:01:29.364Z,6035.62
2019-05-12T10:02:27.994Z,6052.50
2019-05-12T10:03:30.891Z,5866.88
2019-05-12T10:04:28.034Z,5805.00
2019-05-12T10:05:30.410Z,5883.75
2019-05-12T10:06:27.973Z,5703.75
2019-05-12T10:07:26.933Z,5400.00
2019-05-12T10:08:29.351Z,5445.00
2019-05-12T10:09:27.909Z,5698.12
2019-05-12T10:10:29.140Z,6075.00
2019-05-12T10:11:27.886Z,6187.50
2019-05-12T10:12:29.702Z,6080.62
2019-05-12T10:13:30.093Z,6052.50
2019-05-12T10:14:26.853Z,6001.88
2019-05-12T10:15:28.801Z,6001.88
2019-05-12T10:16:26.900Z,5760.00
2019-05-12T10:17:30.147Z,5743.12
2019-05-12T10:18:26.815Z,5895.00
2019-05-12T10:19:26.821Z,6418.12
2019-05-12T10:20:29.176Z,5917.50
2019-05-12T10:21:27.842Z,6395.62
2019-05-12T10:22:30.059Z,6131.25
2019-05-12T10:23:27.777Z,5996.25
2019-05-12T10:24:26.777Z,5866.88
2019-05-12T10:25:28.560Z,6114.38
2019-05-12T10:26:26.724Z,6682.50
2019-05-12T10:27:31.759Z,1867.50
2019-05-12T10:28:27.700Z,2002.50
2019-05-12T10:29:30.667Z,2694.38
2019-05-12T10:30:27.678Z,2058.75
2019-05-12T10:31:29.512Z,1434.38
2019-05-12T10:32:27.739Z,1158.75
2019-05-12T10:33:26.647Z,916.88
2019-05-12T10:34:29.225Z,990.00
2019-05-12T10:35:27.623Z,6339.38
2019-05-12T10:36:26.613Z,6350.62
2019-05-12T10:37:29.355Z,6187.50
2019-05-12T10:38:26.680Z,5743.12
2019-05-12T10:39:26.584Z,5866.88
2019-05-12T10:40:26.573Z,6131.25
2019-05-12T10:41:26.562Z,6001.88
2019-05-12T10:42:26.550Z,6828.75
2019-05-12T10:43:26.538Z,6918.75
2019-05-12T10:44:35.560Z,4578.75
2019-05-12T10:45:27.524Z,4353.75
2019-05-12T10:46:28.617Z,5653.12
2019-05-12T10:47:26.509Z,5737.50
2019-05-12T10:48:26.485Z,5900.62
2019-05-12T10:49:26.476Z,5731.88
2019-05-12T10:50:26.535Z,5703.75
2019-05-12T10:51:26.462Z,5844.38
2019-05-12T10:52:29.326Z,5866.88
2019-05-12T10:53:27.425Z,6142.50
2019-05-12T10:54:26.417Z,6446.25
2019-05-12T10:55:26.422Z,6637.50
2019-05-12T10:56:26.459Z,6564.38
2019-05-12T10:57:26.384Z,6378.75
2019-05-12T10:58:26.389Z,3841.88
2019-05-12T10:59:32.937Z,1901.25
2019-05-12T11:00:27.353Z,6508.12
2019-05-12T11:01:26.388Z,6873.75
2019-05-12T11:02:30.457Z,6783.75
2019-05-12T11:03:26.319Z,6187.50
2019-05-12T11:04:35.583Z,5186.25
2019-05-12T11:05:27.296Z,6097.50
2019-05-12T11:06:26.295Z,1569.38
2019-05-12T11:07:28.095Z,6699.38
2019-05-12T11:08:26.329Z,5956.88
2019-05-12T11:09:30.064Z,5608.12
2019-05-12T11:10:27.241Z,5422.50
2019-05-12T11:11:26.232Z,5506.88
2019-05-12T11:12:29.128Z,6013.12
2019-05-12T11:13:26.213Z,6395.62
2019-05-12T11:14:30.288Z,6170.62
2019-05-12T11:15:26.287Z,6243.75
2019-05-12T11:16:31.070Z,1215.00
2019-05-12T11:17:27.164Z,6103.12
2019-05-12T11:18:30.423Z,6018.75
2019-05-12T11:19:26.150Z,6120.00
2019-05-12T11:20:26.199Z,5776.88
2019-05-12T11:21:26.133Z,4623.75
2019-05-12T11:22:26.115Z,1597.50
2019-05-12T11:23:26.103Z,6536.25
2019-05-12T11:24:26.097Z,6384.38
2019-05-12T11:25:26.080Z,6266.25
2019-05-12T11:26:26.142Z,1653.75
2019-05-12T11:27:26.060Z,5304.38
2019-05-12T11:28:26.055Z,5805.00
2019-05-12T11:29:26.041Z,5681.25
2019-05-12T11:30:26.087Z,5765.62
2019-05-12T11:31:26.018Z,6018.75
2019-05-12T11:32:28.875Z,5850.00
2019-05-12T11:33:26.994Z,5625.00
2019-05-12T11:34:25.994Z,5940.00
2019-05-12T11:35:25.972Z,1507.50
2019-05-12T11:36:25.969Z,1890.00
2019-05-12T11:37:28.959Z,5568.75
2019-05-12T11:38:26.012Z,2520.00
2019-05-12T11:39:30.663Z,2604.38
2019-05-12T11:40:26.917Z,1800.00
2019-05-12T11:41:28.443Z,6328.12
2019-05-12T11:42:25.909Z,5940.00
2019-05-12T11:43:25.888Z,6255.00
2019-05-12T11:44:25.953Z,6806.25
2019-05-12T11:45:25.872Z,6474.38
2019-05-12T11:46:26.581Z,1918.12
2019-05-12T11:47:26.039Z,4258.12
2019-05-12T11:48:25.833Z,1535.62
2019-05-12T11:49:26.823Z,1631.25
2019-05-12T11:50:25.872Z,6851.25
2019-05-12T11:51:29.180Z,6108.75
2019-05-12T11:52:25.789Z,1890.00
2019-05-12T11:53:31.094Z,2092.50
2019-05-12T11:54:28.066Z,2227.50
2019-05-12T11:55:29.789Z,3853.12
2019-05-12T11:56:26.807Z,6519.38
2019-05-12T11:57:30.124Z,1411.88
2019-05-12T11:58:25.752Z,1411.88
2019-05-12T11:59:25.717Z,1406.25
2019-05-12T12:00:25.715Z,1456.88
2019-05-12T12:01:26.415Z,2058.75
2019-05-12T12:02:30.248Z,1805.62
2019-05-12T12:03:25.668Z,1771.88
2019-05-12T12:04:25.657Z,1935.00
2019-05-12T12:05:25.647Z,1614.38
2019-05-12T12:06:25.698Z,1158.75
2019-05-12T12:07:25.627Z,1023.75
2019-05-12T12:08:35.664Z,1006.88
2019-05-12T12:09:26.599Z,6260.62
2019-05-12T12:10:29.298Z,6356.25
2019-05-12T12:11:28.181Z,6193.12
2019-05-12T12:12:25.569Z,6136.88
2019-05-12T12:13:29.838Z,5985.00
2019-05-12T12:14:25.611Z,5979.38
2019-05-12T12:15:30.059Z,6361.88
2019-05-12T12:16:25.524Z,6474.38
2019-05-12T12:17:31.040Z,6215.62
2019-05-12T12:18:26.505Z,6378.75
2019-05-12T12:19:34.143Z,6817.50
2019-05-12T12:20:26.559Z,6901.88
2019-05-12T12:21:25.505Z,1552.50
2019-05-12T12:22:29.587Z,6682.50
2019-05-12T12:23:25.448Z,6530.62
2019-05-12T12:24:29.748Z,5872.50
2019-05-12T12:25:26.425Z,6840.00
2019-05-12T12:26:30.070Z,1845.00
2019-05-12T12:27:26.406Z,2351.25
2019-05-12T12:28:25.392Z,1760.62
2019-05-12T12:29:25.383Z,1631.25
2019-05-12T12:30:25.369Z,5810.62
2019-05-12T12:31:29.774Z,6322.50
2019-05-12T12:32:26.418Z,6480.00
2019-05-12T12:33:25.338Z,4989.38